TimePDT,TemperatureF,Dew PointF,Humidity,Sea Level PressureIn,VisibilityMPH,Wind Direction,Wind SpeedMPH,Gust SpeedMPH,PrecipitationIn,Events,Conditions,WindDirDegrees,DateUTC
12:55 AM,57.9,55.9,93,29.88,7.0,NNW,10.4,-,N/A,,Overcast,340,2013-09-13 07:55:00
1:10 AM,57.2,55.4,94,29.90,2.0,NNW,10.4,-,N/A,,Overcast,330,2013-09-13 08:10:00
1:24 AM,57.2,55.4,94,29.90,1.5,NNW,8.1,-,N/A,,Overcast,330,2013-09-13 08:24:00
1:27 AM,57.2,55.4,94,29.90,1.0,NNW,9.2,-,N/A,,Mist,330,2013-09-13 08:27:00
1:36 AM,57.2,55.4,94,29.90,0.8,NNW,9.2,-,N/A,,Mist,330,2013-09-13 08:36:00
1:55 AM,57.9,55.9,93,29.87,0.5,NNW,9.2,-,N/A,Fog,Fog,330,2013-09-13 08:55:00
2:04 AM,57.2,55.4,94,29.89,1.0,NNW,8.1,-,N/A,,Mist,330,2013-09-13 09:04:00
2:14 AM,57.2,55.4,94,29.89,0.5,NNW,8.1,-,N/A,Fog,Fog,330,2013-09-13 09:14:00
2:21 AM,57.2,55.4,94,29.89,0.8,NNW,6.9,-,N/A,,Mist,330,2013-09-13 09:21:00
2:29 AM,57.2,55.4,94,29.89,0.2,NNW,6.9,-,N/A,Fog,Fog,330,2013-09-13 09:29:00
2:55 AM,57.0,55.9,96,29.85,0.2,NNW,5.8,-,N/A,Fog,Fog,340,2013-09-13 09:55:00
3:55 AM,57.0,57.0,100,29.83,0.2,Calm,Calm,-,N/A,Fog,Fog,0,2013-09-13 10:55:00
4:08 AM,57.2,55.4,94,29.86,0.5,Calm,Calm,-,N/A,Fog,Fog,0,2013-09-13 11:08:00
4:53 AM,57.2,55.4,94,29.86,0.8,North,4.6,-,N/A,,Mist,360,2013-09-13 11:53:00
4:55 AM,57.0,55.0,93,29.83,0.8,North,4.6,-,N/A,,Mist,350,2013-09-13 11:55:00
5:04 AM,57.2,55.4,94,29.86,1.0,Calm,Calm,-,N/A,,Mist,0,2013-09-13 12:04:00
5:23 AM,57.2,55.4,94,29.86,1.2,NNW,4.6,-,N/A,,Overcast,330,2013-09-13 12:23:00
5:27 AM,57.2,55.4,94,29.86,1.8,North,3.5,-,N/A,,Overcast,10,2013-09-13 12:27:00
5:35 AM,57.2,55.4,94,29.86,1.2,NW,4.6,-,N/A,,Overcast,310,2013-09-13 12:35:00
5:41 AM,57.2,55.4,94,29.86,0.8,NW,4.6,-,N/A,,Mist,310,2013-09-13 12:41:00
5:51 AM,57.2,55.4,94,29.86,0.5,NW,8.1,-,N/A,Fog,Fog,320,2013-09-13 12:51:00
5:55 AM,55.9,55.0,97,29.84,0.8,NNW,8.1,-,N/A,,Mist,330,2013-09-13 12:55:00
6:03 AM,55.4,55.4,100,29.86,1.0,NW,4.6,-,N/A,,Mist,320,2013-09-13 13:03:00
6:18 AM,55.4,55.4,100,29.86,0.8,NW,5.8,-,N/A,,Mist,310,2013-09-13 13:18:00
6:37 AM,55.4,55.4,100,29.87,0.2,NW,6.9,-,N/A,Fog,Fog,320,2013-09-13 13:37:00
6:55 AM,55.9,55.0,97,29.84,0.1,NW,6.9,-,N/A,Fog,Fog,310,2013-09-13 13:55:00
7:29 AM,55.4,55.4,100,29.87,0.2,NW,6.9,-,N/A,Fog,Fog,320,2013-09-13 14:29:00
7:43 AM,55.4,55.4,100,29.87,0.2,NW,8.1,-,N/A,Fog,Fog,320,2013-09-13 14:43:00
7:55 AM,55.9,55.0,97,29.85,0.5,NW,6.9,-,N/A,Fog,Fog,320,2013-09-13 14:55:00
8:55 AM,57.0,57.0,100,29.85,0.5,Calm,Calm,-,N/A,Fog,Fog,0,2013-09-13 15:55:00
9:55 AM,57.0,55.9,96,29.84,0.5,Calm,Calm,-,N/A,Fog,Fog,0,2013-09-13 16:55:00
10:24 AM,57.2,55.4,94,29.87,1.2,North,8.1,-,N/A,,Overcast,350,2013-09-13 17:24:00
10:25 AM,57.2,55.4,94,29.87,1.2,North,8.1,-,N/A,,Overcast,350,2013-09-13 17:25:00
10:55 AM,59.0,55.9,90,29.84,1.0,NW,16.1,-,N/A,,Overcast,320,2013-09-13 17:55:00
11:55 AM,61.0,55.9,83,29.82,1.0,NW,13.8,-,N/A,,Haze,320,2013-09-13 18:55:00
12:03 PM,60.8,55.4,82,29.84,2.0,NW,13.8,-,N/A,,Haze,310,2013-09-13 19:03:00
12:31 PM,62.6,55.4,77,29.83,3.0,NW,11.5,-,N/A,,Mostly Cloudy,320,2013-09-13 19:31:00
12:55 PM,64.0,55.9,75,29.81,3.0,NW,13.8,-,N/A,,Mostly Cloudy,320,2013-09-13 19:55:00
1:55 PM,63.0,55.0,75,29.79,3.0,NW,18.4,23.0,N/A,,Mostly Cloudy,310,2013-09-13 20:55:00
2:55 PM,64.0,55.9,75,29.78,7.0,NW,19.6,24.2,N/A,,Mostly Cloudy,310,2013-09-13 21:55:00
3:55 PM,64.0,55.0,73,29.76,5.0,NW,20.7,-,N/A,,Mostly Cloudy,310,2013-09-13 22:55:00
4:30 PM,60.8,55.4,82,29.78,3.0,WNW,13.8,-,N/A,,Overcast,300,2013-09-13 23:30:00
4:55 PM,60.1,55.0,83,29.75,2.0,WNW,17.3,-,N/A,,Overcast,300,2013-09-13 23:55:00
5:02 PM,59.0,55.4,88,29.77,9.0,NW,16.1,21.9,N/A,,Overcast,310,2013-09-14 00:02:00
5:55 PM,57.9,55.0,90,29.74,2.5,NW,16.1,-,N/A,,Overcast,320,2013-09-14 00:55:00
6:18 PM,57.2,55.4,94,29.77,3.0,NW,12.7,-,N/A,,Overcast,310,2013-09-14 01:18:00
6:28 PM,57.2,55.4,94,29.77,2.5,NW,15.0,19.6,N/A,,Overcast,320,2013-09-14 01:28:00
6:36 PM,57.2,55.4,94,29.77,2.0,NW,15.0,-,N/A,,Overcast,310,2013-09-14 01:36:00
6:53 PM,57.2,55.4,94,29.77,3.0,NW,13.8,-,N/A,,Overcast,310,2013-09-14 01:53:00
6:55 PM,57.0,55.0,93,29.74,3.0,NW,15.0,-,N/A,,Overcast,320,2013-09-14 01:55:00
7:55 PM,57.9,55.0,90,29.74,8.0,NW,8.1,-,N/A,,Overcast,320,2013-09-14 02:55:00
8:55 PM,57.0,55.0,93,29.75,4.0,NW,8.1,-,N/A,,Overcast,310,2013-09-14 03:55:00
9:26 PM,55.4,55.4,100,29.78,2.0,NNW,6.9,-,N/A,,Overcast,340,2013-09-14 04:26:00
9:28 PM,55.4,55.4,100,29.78,1.5,NNW,6.9,-,N/A,,Overcast,330,2013-09-14 04:28:00
9:32 PM,55.4,53.6,94,29.78,1.0,NW,6.9,-,N/A,,Mist,320,2013-09-14 04:32:00
9:40 PM,55.4,53.6,94,29.78,0.8,NW,6.9,-,N/A,,Mist,320,2013-09-14 04:40:00
9:55 PM,55.9,55.0,97,29.75,0.8,NNW,6.9,-,N/A,,Mist,330,2013-09-14 04:55:00
10:09 PM,55.4,55.4,100,29.78,1.0,NNW,6.9,-,N/A,,Mist,330,2013-09-14 05:09:00
10:54 PM,55.9,55.0,97,29.76,1.5,NW,4.6,-,N/A,,Overcast,310,2013-09-14 05:54:00
11:01 PM,55.4,55.4,100,29.78,2.0,WNW,3.5,-,N/A,,Overcast,300,2013-09-14 06:01:00
11:06 PM,55.4,55.4,100,29.78,3.0,WNW,4.6,-,N/A,,Overcast,300,2013-09-14 06:06:00
11:42 PM,55.4,53.6,94,29.78,2.0,NNW,6.9,-,N/A,,Overcast,330,2013-09-14 06:42:00
11:47 PM,55.4,53.6,94,29.78,1.5,NNW,6.9,-,N/A,,Overcast,330,2013-09-14 06:47:00
11:55 PM,55.9,54.0,93,29.75,1.2,NNW,6.9,-,N/A,,Overcast,330,2013-09-14 06:55:00